Aérodrome :







RETROUVEZ-NOUS SUR...

 
LOGIN :

S'inscrire | Disclaimer

   EN    FR    IT 

 









Légende :    VFR   VFR Marginal   IFR   IFR Intensif   IFR Très Intensif
Visi : 
Plafond : 
>= 8 km
>= 3000ft
5 à 8 km
1000 à 3000 ft
1500m à 5 km
500 à 1000 ft
800 à 1500m
200 à 500 ft
< 800m
< 200 ft
Symboles :   Orages  Brouillard  Fortes neiges  Fortes précipitations  Vent > 20 kt






- Altitude de l'aérodrome : 20 ft
- Code IATA : BOS


KBOS - General Edward Lawrence Logan International

DERNIER METAR :
  • 140554Z 33008KT 10SM SCT250 M04/M14 A3047 RMK AO2 SLP317 T10441144 11022 21044 53005

METARs EXPIRÉS :
  • 140454Z 34006KT 10SM SCT250 M04/M15 A3047 RMK AO2 SLP315 T10391150 400061061
  • 140354Z 32008KT 10SM FEW250 M03/M15 A3046 RMK AO2 SLP312 T10331150

TAF KBOS
Valide du 14 à 06h jusqu'au 15 à 12h UTC


140539Z 1406/1512 34006KT P6SM FEW030 SCT100 BKN250
FM141100 VRB03KT P6SM FEW030 BKN120
FM141800 19007KT P6SM OVC030
FM150100 22008KT 6SM -SHRA BR OVC025
FM150400 23008KT P6SM BKN025
FM150500 24006KT P6SM BKN120



MET'MAP, la Météo Aéronautique d'un coup d'oeil ! - Copyright ORBIFLY Décembre 2007 - Disclaimer

ORBIFLY MET'MAP TEAM :

Programmation & Développement : Alexandra Zaïnal
Conception & Développement : Baudouin d'Aumeries
Co-Programmation & Développement : Marc-Olivier Méhu
Soutien technique & logistique : Manuel Goepfert

Contact : metmap@orbifly.com




SOURCES & CREDITS :

   NOAA